Time;durP1;ratioP1;P1;durP2;ratioP2;P2;SDS_P1;SDS_P2;PMS_P1;PMS_P2;Temp;Humidity;BMP_temperature;BMP_pressure;BME280_temperature;BME280_humidity;BME280_pressure;Samples;Min_cycle;Max_cycle;Signal;HPM_P1;HPM_P2
2021/05/30 00:01:04;;;;;;;24.30;20.70;;;11.30;99.90;;;;;;5048302;28;20454;-73
2021/05/30 00:03:30;;;;;;;21.30;19.03;;;11.30;99.90;;;;;;5014244;28;20408;-72
2021/05/30 00:05:55;;;;;;;21.33;19.00;;;11.30;99.90;;;;;;5013973;28;20174;-72
2021/05/30 00:08:21;;;;;;;21.60;19.47;;;11.30;99.90;;;;;;5014549;28;20176;-73
2021/05/30 00:10:47;;;;;;;20.40;18.27;;;11.30;99.90;;;;;;5021880;28;20283;-73
2021/05/30 00:13:12;;;;;;;19.80;17.90;;;11.20;99.90;;;;;;5033841;28;20520;-72
2021/05/30 00:15:38;;;;;;;26.17;21.30;;;11.20;99.90;;;;;;5033509;28;20184;-72
2021/05/30 00:18:04;;;;;;;22.83;19.03;;;11.20;99.90;;;;;;5033057;28;20292;-72
2021/05/30 00:20:30;;;;;;;21.93;19.83;;;11.20;99.90;;;;;;5013925;28;20454;-72
2021/05/30 00:22:55;;;;;;;22.80;20.23;;;11.10;99.90;;;;;;5014540;28;20158;-72
2021/05/30 00:25:21;;;;;;;22.03;19.83;;;11.10;99.90;;;;;;5014827;28;20170;-73
2021/05/30 00:27:46;;;;;;;22.97;20.57;;;11.10;99.90;;;;;;5014127;28;20689;-72
2021/05/30 00:30:13;;;;;;;21.33;19.13;;;11.10;99.90;;;;;;5044958;28;20253;-72
2021/05/30 00:32:38;;;;;;;24.20;21.47;;;11.10;99.90;;;;;;5053391;28;20598;-72
2021/05/30 00:35:04;;;;;;;24.63;22.03;;;11.00;99.90;;;;;;5051250;28;20398;-72
2021/05/30 00:37:30;;;;;;;23.83;21.27;;;11.00;99.90;;;;;;5021140;28;20189;-72
2021/05/30 00:39:55;;;;;;;23.93;21.50;;;11.00;99.90;;;;;;5033433;28;20189;-72
2021/05/30 00:42:21;;;;;;;26.90;24.00;;;10.90;99.90;;;;;;5033358;28;20563;-72
2021/05/30 00:44:46;;;;;;;24.80;22.20;;;10.90;99.90;;;;;;5047065;28;20634;-72
2021/05/30 00:47:12;;;;;;;26.07;23.40;;;10.90;99.90;;;;;;5053002;28;20627;-72
2021/05/30 00:49:37;;;;;;;27.23;24.17;;;10.80;99.90;;;;;;5052998;28;20168;-72
2021/05/30 00:52:05;;;;;;;27.50;24.63;;;10.80;99.90;;;;;;5051486;28;20630;-72
2021/05/30 00:54:31;;;;;;;25.67;22.97;;;10.80;99.90;;;;;;5013503;28;20714;-72
2021/05/30 00:56:56;;;;;;;27.97;24.10;;;10.80;99.90;;;;;;5013436;28;20484;-73
2021/05/30 00:59:22;;;;;;;25.20;22.40;;;10.80;99.90;;;;;;5013352;28;20224;-72
2021/05/30 01:01:48;;;;;;;27.13;24.20;;;10.70;99.90;;;;;;5013295;28;20162;-72
2021/05/30 01:04:14;;;;;;;25.87;23.07;;;10.70;99.90;;;;;;5015933;28;20296;-72
2021/05/30 01:06:40;;;;;;;27.40;23.80;;;10.70;99.90;;;;;;5033118;28;20446;-72
2021/05/30 01:09:07;;;;;;;25.40;22.30;;;10.70;99.90;;;;;;5032050;28;20516;-72
2021/05/30 01:11:33;;;;;;;24.43;22.00;;;10.60;99.90;;;;;;5026370;28;20461;-72
2021/05/30 01:13:59;;;;;;;24.53;21.93;;;10.60;99.90;;;;;;5033040;28;20431;-72
2021/05/30 01:16:26;;;;;;;27.70;22.87;;;10.60;99.90;;;;;;5032910;28;20422;-72
2021/05/30 01:18:55;;;;;;;22.67;20.37;;;10.60;99.90;;;;;;5052311;28;20553;-72
2021/05/30 01:21:22;;;;;;;24.03;21.37;;;10.50;99.90;;;;;;5052904;28;20888;-72
2021/05/30 01:23:56;;;;;;;24.30;22.00;;;10.50;99.90;;;;;;5052749;28;20399;-72
2021/05/30 01:26:23;;;;;;;25.40;22.10;;;10.50;99.90;;;;;;5045845;28;20792;-72
2021/05/30 01:28:49;;;;;;;24.93;22.27;;;10.50;99.90;;;;;;5013294;28;20413;-72
2021/05/30 01:31:15;;;;;;;25.90;23.10;;;10.50;99.90;;;;;;5050814;28;20431;-72
2021/05/30 01:33:41;;;;;;;23.07;20.63;;;10.50;99.90;;;;;;5052495;28;20446;-72
2021/05/30 01:36:07;;;;;;;24.83;22.40;;;10.40;99.90;;;;;;5052968;28;20419;-72
2021/05/30 01:38:32;;;;;;;25.23;20.30;;;10.40;99.90;;;;;;5052878;28;20192;-72
2021/05/30 01:40:58;;;;;;;24.00;21.40;;;10.30;99.90;;;;;;5052735;28;20198;-72
2021/05/30 01:43:24;;;;;;;23.73;21.53;;;10.30;99.90;;;;;;5044951;28;20269;-72
2021/05/30 01:45:50;;;;;;;24.30;21.80;;;10.30;99.90;;;;;;5031309;28;20412;-72
2021/05/30 01:48:15;;;;;;;24.17;21.80;;;10.30;99.90;;;;;;5032772;28;20542;-72
2021/05/30 01:50:47;;;;;;;23.87;21.43;;;10.30;99.90;;;;;;5032979;28;20165;-72
2021/05/30 01:53:14;;;;;;;23.67;21.27;;;10.30;99.90;;;;;;5032815;28;20216;-72
2021/05/30 01:58:33;;;;;;;23.07;20.63;;;10.20;99.90;;;;;;5069858;28;20893;-72
2021/05/30 02:01:00;;;;;;;24.70;22.30;;;10.20;99.90;;;;;;5052974;28;20458;-72
2021/05/30 02:03:27;;;;;;;22.90;20.50;;;10.10;99.90;;;;;;5030472;28;20472;-72
2021/05/30 02:05:54;;;;;;;24.90;22.00;;;10.10;99.90;;;;;;5030612;28;20388;-72
2021/05/30 02:08:20;;;;;;;27.93;21.03;;;10.10;99.90;;;;;;5030202;28;20411;-72
2021/05/30 02:10:46;;;;;;;22.77;20.37;;;10.10;99.90;;;;;;5045215;28;20411;-72
2021/05/30 02:13:12;;;;;;;22.57;20.33;;;10.10;99.90;;;;;;5050073;28;20411;-72
2021/05/30 02:15:38;;;;;;;22.50;20.20;;;10.00;99.90;;;;;;5049937;28;20188;-72
2021/05/30 02:18:05;;;;;;;22.30;19.90;;;10.00;99.90;;;;;;5048960;28;20451;-72
2021/05/30 02:20:35;;;;;;;22.27;19.87;;;10.00;99.90;;;;;;5057442;28;20456;-72
2021/05/30 02:23:01;;;;;;;21.33;19.23;;;9.90;99.90;;;;;;5069961;28;20387;-72
2021/05/30 02:25:27;;;;;;;24.33;21.93;;;9.90;99.90;;;;;;5069768;28;20423;-72
2021/05/30 02:27:54;;;;;;;21.33;19.20;;;9.80;99.90;;;;;;5069854;28;20484;-72
2021/05/30 02:30:20;;;;;;;22.63;20.43;;;9.80;99.90;;;;;;5069696;28;20165;-72
2021/05/30 02:32:47;;;;;;;22.77;20.20;;;9.80;99.90;;;;;;5069817;28;20898;-72
2021/05/30 02:35:13;;;;;;;21.77;19.73;;;9.80;99.90;;;;;;5059212;28;20462;-70
2021/05/30 02:37:38;;;;;;;22.20;20.00;;;9.80;99.90;;;;;;5049672;28;20460;-70
2021/05/30 02:40:05;;;;;;;26.83;22.27;;;9.80;99.90;;;;;;5050274;28;20412;-69
2021/05/30 02:42:31;;;;;;;26.10;23.53;;;9.80;99.90;;;;;;5049461;28;20153;-69
2021/05/30 02:44:57;;;;;;;24.33;21.93;;;9.70;99.90;;;;;;5049569;28;20807;-69
2021/05/30 02:47:22;;;;;;;25.17;22.47;;;9.70;99.90;;;;;;5049462;28;20264;-69
2021/05/30 02:49:48;;;;;;;24.17;21.70;;;9.80;99.90;;;;;;5054905;28;20160;-69
2021/05/30 02:52:14;;;;;;;24.07;21.67;;;9.70;99.90;;;;;;5047991;28;20208;-69
2021/05/30 02:54:39;;;;;;;25.07;22.53;;;9.70;99.90;;;;;;5029350;28;20220;-69
2021/05/30 02:57:05;;;;;;;26.00;23.27;;;9.70;99.90;;;;;;5029132;28;20682;-69
2021/05/30 02:59:31;;;;;;;26.37;22.00;;;9.70;99.90;;;;;;5029599;28;20559;-69
2021/05/30 03:01:57;;;;;;;27.93;23.50;;;9.70;99.90;;;;;;5029502;28;20401;-69
2021/05/30 03:04:22;;;;;;;23.87;21.20;;;9.70;99.90;;;;;;5038992;28;20180;-69
2021/05/30 03:06:48;;;;;;;25.20;22.60;;;9.70;99.90;;;;;;5069200;28;20184;-69
2021/05/30 03:09:13;;;;;;;23.20;20.70;;;9.60;99.90;;;;;;5037737;28;20192;-69
2021/05/30 03:11:39;;;;;;;25.83;21.50;;;9.60;99.90;;;;;;5015967;28;20162;-69
2021/05/30 03:14:04;;;;;;;23.70;21.40;;;9.60;99.90;;;;;;5015938;28;20333;-69
2021/05/30 03:16:30;;;;;;;22.47;20.13;;;9.50;99.90;;;;;;5015641;28;20194;-69
2021/05/30 03:18:55;;;;;;;23.33;21.00;;;9.50;99.90;;;;;;5021160;28;20169;-69
2021/05/30 03:21:21;;;;;;;22.10;19.77;;;9.40;99.90;;;;;;5055516;28;20244;-69
2021/05/30 03:23:47;;;;;;;23.40;21.07;;;9.40;99.90;;;;;;5055069;28;20196;-69
2021/05/30 03:26:12;;;;;;;22.70;20.40;;;9.40;99.90;;;;;;5034582;28;20174;-69
2021/05/30 03:28:38;;;;;;;22.77;20.60;;;9.40;99.90;;;;;;5015531;28;20189;-69
2021/05/30 03:31:05;;;;;;;23.67;21.17;;;9.40;99.90;;;;;;5015608;28;20154;-69
2021/05/30 03:33:30;;;;;;;22.07;19.67;;;9.30;99.90;;;;;;5031510;28;20948;-69
2021/05/30 03:35:59;;;;;;;22.23;18.80;;;9.30;99.90;;;;;;5035497;28;20458;-69
2021/05/30 03:38:27;;;;;;;23.43;19.77;;;9.30;99.90;;;;;;5035049;28;20625;-69
2021/05/30 03:41:02;;;;;;;22.00;19.43;;;9.30;99.90;;;;;;5035067;28;20420;-69
2021/05/30 03:43:28;;;;;;;21.17;19.07;;;9.30;99.90;;;;;;5023163;28;20416;-69
2021/05/30 03:45:54;;;;;;;24.00;21.60;;;9.20;99.90;;;;;;5015311;28;20508;-69
2021/05/30 03:48:20;;;;;;;21.60;19.40;;;9.20;99.90;;;;;;5015150;28;20436;-69
2021/05/30 03:50:49;;;;;;;22.37;19.90;;;9.20;99.90;;;;;;5015043;28;20429;-69
2021/05/30 03:53:16;;;;;;;22.40;20.10;;;9.20;99.90;;;;;;5015126;28;20312;-69
2021/05/30 03:55:42;;;;;;;21.10;18.90;;;9.20;99.90;;;;;;5018849;28;20428;-69
2021/05/30 03:58:07;;;;;;;24.33;21.83;;;9.20;99.90;;;;;;5034414;28;20574;-69
2021/05/30 04:00:33;;;;;;;26.67;19.43;;;9.20;99.90;;;;;;5021784;28;20236;-69
2021/05/30 04:02:59;;;;;;;21.27;19.10;;;9.20;99.90;;;;;;5015239;28;20181;-69
2021/05/30 04:05:24;;;;;;;21.70;19.60;;;9.20;99.90;;;;;;5015336;28;20366;-69
2021/05/30 04:07:50;;;;;;;22.97;20.57;;;9.20;99.90;;;;;;5014823;28;20169;-69
2021/05/30 04:10:15;;;;;;;23.83;21.30;;;9.20;99.90;;;;;;5035430;28;20184;-69
2021/05/30 04:12:42;;;;;;;22.90;20.70;;;9.20;99.90;;;;;;5054453;28;20598;-69
2021/05/30 04:15:10;;;;;;;22.63;20.40;;;9.20;99.90;;;;;;5054470;28;20252;-69
2021/05/30 04:17:36;;;;;;;22.63;20.17;;;9.20;99.90;;;;;;5027023;28;20922;-69
2021/05/30 04:20:03;;;;;;;23.57;21.00;;;9.20;99.90;;;;;;5014203;28;20593;-69
2021/05/30 04:22:29;;;;;;;22.20;19.93;;;9.20;99.90;;;;;;5014674;28;20757;-69
2021/05/30 04:24:55;;;;;;;21.47;19.17;;;9.20;99.90;;;;;;5016207;28;20496;-69
2021/05/30 04:27:20;;;;;;;23.23;20.83;;;9.20;99.90;;;;;;5054304;28;20561;-69
2021/05/30 04:29:46;;;;;;;23.43;20.97;;;9.20;99.90;;;;;;5054208;28;20161;-69
2021/05/30 04:32:11;;;;;;;21.97;19.23;;;9.20;99.90;;;;;;5054479;28;20160;-69
2021/05/30 04:34:37;;;;;;;23.50;21.13;;;9.30;99.90;;;;;;5050095;28;20666;-69
2021/05/30 04:37:03;;;;;;;21.13;19.03;;;9.30;99.90;;;;;;5054143;28;20253;-69
2021/05/30 04:39:32;;;;;;;21.20;18.90;;;9.30;99.90;;;;;;5054035;28;20172;-69
2021/05/30 04:41:58;;;;;;;21.63;19.40;;;9.30;99.90;;;;;;5053908;28;20407;-69
2021/05/30 04:44:24;;;;;;;21.73;19.57;;;9.30;99.90;;;;;;5053946;28;20413;-69
2021/05/30 04:46:50;;;;;;;22.97;20.57;;;9.30;99.90;;;;;;5054278;28;20400;-69
2021/05/30 04:49:16;;;;;;;22.17;19.87;;;9.30;99.90;;;;;;5053958;28;20701;-69
2021/05/30 04:51:41;;;;;;;22.27;20.00;;;9.40;99.90;;;;;;5024933;28;20190;-69
2021/05/30 04:54:07;;;;;;;22.40;20.13;;;9.40;99.90;;;;;;5027159;28;20181;-69
2021/05/30 04:56:32;;;;;;;21.93;19.73;;;9.40;99.90;;;;;;5033658;28;20197;-69
2021/05/30 04:58:58;;;;;;;21.67;19.47;;;9.50;99.90;;;;;;5033447;28;20539;-69
2021/05/30 05:01:23;;;;;;;24.50;22.03;;;9.50;99.90;;;;;;5033915;28;20177;-69
2021/05/30 05:03:50;;;;;;;20.27;18.17;;;9.50;99.90;;;;;;5033808;28;20157;-69
2021/05/30 05:06:16;;;;;;;20.93;18.83;;;9.60;99.90;;;;;;5052111;28;20654;-69
2021/05/30 05:08:41;;;;;;;22.50;20.20;;;9.60;99.90;;;;;;5038123;28;20498;-69
2021/05/30 05:11:09;;;;;;;22.67;20.50;;;9.70;99.90;;;;;;5033395;28;20615;-69
2021/05/30 05:13:34;;;;;;;22.33;20.17;;;9.70;99.90;;;;;;5033652;28;20160;-69
2021/05/30 05:16:00;;;;;;;20.97;18.77;;;9.80;99.90;;;;;;5033729;28;20388;-69
2021/05/30 05:18:29;;;;;;;21.20;18.90;;;9.80;99.90;;;;;;5033325;28;20270;-69
2021/05/30 05:20:54;;;;;;;21.57;19.40;;;9.90;99.90;;;;;;5033629;28;20653;-69
2021/05/30 05:23:22;;;;;;;22.80;18.77;;;9.90;99.90;;;;;;5033412;28;20479;-69
2021/05/30 05:25:49;;;;;;;20.00;18.10;;;10.00;99.90;;;;;;5018166;28;20224;-69
2021/05/30 05:28:14;;;;;;;21.03;19.00;;;10.10;99.90;;;;;;5013778;28;20405;-69
2021/05/30 05:30:40;;;;;;;20.63;18.50;;;10.10;99.90;;;;;;5014200;28;20411;-69
2021/05/30 05:33:05;;;;;;;21.37;19.17;;;10.20;99.90;;;;;;5021146;28;20634;-69
2021/05/30 05:35:31;;;;;;;20.30;17.83;;;10.20;99.90;;;;;;5033453;28;20177;-69
2021/05/30 05:37:58;;;;;;;19.40;17.47;;;10.30;99.90;;;;;;5032931;28;20201;-69
2021/05/30 05:40:25;;;;;;;19.03;17.17;;;10.40;99.90;;;;;;5033188;28;20161;-69
2021/05/30 05:42:52;;;;;;;20.60;18.50;;;10.40;99.90;;;;;;5017724;28;20555;-69
2021/05/30 05:45:18;;;;;;;20.60;17.87;;;10.50;99.90;;;;;;5014139;28;20535;-69
2021/05/30 05:47:44;;;;;;;18.53;16.70;;;10.60;99.90;;;;;;5023220;28;20425;-69
2021/05/30 05:50:12;;;;;;;17.77;16.03;;;10.70;99.90;;;;;;5033104;28;20478;-69
2021/05/30 05:52:39;;;;;;;18.60;16.13;;;10.80;99.90;;;;;;5033042;28;20897;-69
2021/05/30 05:55:06;;;;;;;17.40;15.70;;;10.90;99.90;;;;;;5033024;28;20462;-69
2021/05/30 05:57:32;;;;;;;17.03;15.40;;;11.00;99.90;;;;;;5032757;28;20517;-69
2021/05/30 05:59:58;;;;;;;19.60;16.10;;;11.10;99.90;;;;;;5016702;28;20441;-69
2021/05/30 06:02:23;;;;;;;16.30;14.70;;;11.20;99.90;;;;;;5022772;28;20274;-69
2021/05/30 06:04:49;;;;;;;14.70;13.20;;;11.30;99.90;;;;;;5032905;28;20219;-69
2021/05/30 06:07:14;;;;;;;14.27;12.87;;;11.40;99.90;;;;;;5032830;28;20181;-70
2021/05/30 06:09:40;;;;;;;16.40;13.53;;;11.50;99.90;;;;;;5032928;28;20176;-69
2021/05/30 06:12:06;;;;;;;13.47;12.17;;;11.60;99.90;;;;;;5032748;28;20212;-69
2021/05/30 06:14:32;;;;;;;14.30;11.30;;;11.70;99.90;;;;;;5033112;28;20165;-69
2021/05/30 06:16:58;;;;;;;12.10;10.90;;;11.80;99.90;;;;;;5038595;28;20561;-69
2021/05/30 06:19:25;;;;;;;12.63;11.43;;;11.90;99.90;;;;;;5052906;28;20157;-69
2021/05/30 06:21:51;;;;;;;11.30;10.13;;;12.00;99.90;;;;;;5052693;28;20180;-69
2021/05/30 06:24:16;;;;;;;12.87;10.77;;;12.10;99.90;;;;;;5052435;28;20461;-69
2021/05/30 06:26:42;;;;;;;10.33;9.00;;;12.20;99.90;;;;;;5033968;28;20192;-69
2021/05/30 06:29:08;;;;;;;12.23;10.80;;;12.30;99.90;;;;;;5033128;28;20626;-69
2021/05/30 06:31:33;;;;;;;11.20;10.13;;;12.40;99.90;;;;;;5026671;28;20197;-69
2021/05/30 06:33:59;;;;;;;11.63;10.43;;;12.50;99.90;;;;;;5028971;28;20185;-69
2021/05/30 06:36:24;;;;;;;11.17;10.07;;;12.60;99.90;;;;;;5032569;28;20236;-69
2021/05/30 06:38:50;;;;;;;10.30;9.30;;;12.60;99.90;;;;;;5032541;28;20625;-69
2021/05/30 06:41:17;;;;;;;9.63;8.73;;;12.70;99.90;;;;;;5032814;28;20173;-69
2021/05/30 06:43:43;;;;;;;9.90;8.90;;;12.80;99.90;;;;;;5033949;28;20197;-69
2021/05/30 06:46:09;;;;;;;9.93;9.10;;;13.00;99.90;;;;;;5040680;28;20442;-69
2021/05/30 06:48:34;;;;;;;8.97;8.17;;;13.10;99.90;;;;;;5056172;28;20997;-69
2021/05/30 06:51:16;;;;;;;9.30;8.03;;;13.10;99.90;;;;;;5022159;28;20185;-69
2021/05/30 06:53:46;;;;;;;9.20;7.80;;;13.20;99.90;;;;;;5016467;28;20677;-69
2021/05/30 06:56:12;;;;;;;8.13;7.27;;;13.30;99.90;;;;;;5016125;28;20760;-69
2021/05/30 06:58:39;;;;;;;9.27;7.53;;;13.40;99.90;;;;;;5016404;28;20460;-69
2021/05/30 07:01:04;;;;;;;11.90;10.80;;;13.60;99.90;;;;;;5022758;28;20427;-69
2021/05/30 07:03:30;;;;;;;9.00;7.67;;;13.70;99.90;;;;;;5036051;28;20381;-69
2021/05/30 07:05:56;;;;;;;6.83;5.90;;;13.80;99.90;;;;;;5035534;28;20154;-69
2021/05/30 07:08:22;;;;;;;7.33;6.57;;;14.00;99.90;;;;;;5027821;28;20271;-69
2021/05/30 07:10:47;;;;;;;6.10;5.50;;;14.20;99.90;;;;;;5035896;28;20977;-69
2021/05/30 07:13:13;;;;;;;5.13;4.67;;;14.30;99.90;;;;;;5036572;28;20170;-69
2021/05/30 07:15:40;;;;;;;5.50;4.60;;;14.50;99.90;;;;;;5040206;28;20164;-69
2021/05/30 07:18:05;;;;;;;4.80;4.40;;;14.70;99.90;;;;;;5055529;28;20557;-69
2021/05/30 07:20:31;;;;;;;5.60;4.87;;;14.90;99.90;;;;;;5055602;28;20391;-70
2021/05/30 07:22:56;;;;;;;4.77;3.73;;;15.10;99.90;;;;;;5054803;28;20160;-69
2021/05/30 07:25:22;;;;;;;4.80;4.40;;;15.50;99.90;;;;;;5016797;28;20180;-69
2021/05/30 07:27:47;;;;;;;6.13;4.47;;;16.00;99.90;;;;;;5016206;28;20169;-69
2021/05/30 07:30:14;;;;;;;6.73;3.30;;;17.10;99.90;;;;;;5022658;28;20230;-70
2021/05/30 07:32:39;;;;;;;3.83;3.43;;;18.40;95.80;;;;;;5055246;28;20235;-71
2021/05/30 07:35:05;;;;;;;6.63;3.83;;;20.00;85.10;;;;;;5055325;28;20482;-70
2021/05/30 07:37:31;;;;;;;4.60;3.70;;;21.60;71.60;;;;;;5055191;28;20242;-70
2021/05/30 07:39:56;;;;;;;4.40;3.03;;;23.00;59.20;;;;;;5054673;28;20408;-70
2021/05/30 07:42:22;;;;;;;3.60;3.30;;;24.20;53.40;;;;;;5016162;28;20188;-70
2021/05/30 07:44:47;;;;;;;4.03;2.97;;;25.20;48.20;;;;;;5035330;28;20273;-70
2021/05/30 07:47:13;;;;;;;3.70;2.63;;;26.20;45.50;;;;;;5055040;28;20168;-70
2021/05/30 07:49:39;;;;;;;4.20;2.90;;;27.10;43.10;;;;;;5055258;28;20714;-70
2021/05/30 07:52:04;;;;;;;2.10;2.00;;;28.20;41.60;;;;;;5055046;28;20157;-70
2021/05/30 07:54:30;;;;;;;2.67;2.47;;;28.90;36.80;;;;;;5054885;28;20190;-70
2021/05/30 07:56:56;;;;;;;2.83;2.57;;;29.00;36.20;;;;;;5054568;28;20231;-70
2021/05/30 07:59:21;;;;;;;2.53;2.37;;;29.70;35.00;;;;;;5024286;28;20351;-70
2021/05/30 08:01:48;;;;;;;2.60;1.87;;;30.20;32.60;;;;;;5034917;28;20154;-70
2021/05/30 08:04:14;;;;;;;2.13;1.93;;;30.70;31.90;;;;;;5034827;28;20164;-71
2021/05/30 08:06:40;;;;;;;2.10;1.90;;;30.90;31.30;;;;;;5035697;28;20484;-70
2021/05/30 08:09:06;;;;;;;2.40;2.13;;;31.20;29.50;;;;;;5034872;28;20182;-71
2021/05/30 08:11:32;;;;;;;5.60;2.17;;;31.10;29.40;;;;;;5034647;28;20416;-71
2021/05/30 08:13:58;;;;;;;3.17;2.20;;;31.40;29.80;;;;;;5040793;28;20164;-71
2021/05/30 08:16:24;;;;;;;2.70;2.20;;;31.90;28.90;;;;;;5015018;28;20174;-72
2021/05/30 08:18:49;;;;;;;2.07;1.93;;;32.70;28.10;;;;;;5014803;28;20389;-71
2021/05/30 08:21:15;;;;;;;2.53;2.00;;;33.50;27.00;;;;;;5029374;28;20184;-72
2021/05/30 08:23:43;;;;;;;2.83;1.80;;;34.30;26.60;;;;;;5034875;28;20203;-72
2021/05/30 08:26:09;;;;;;;2.40;2.20;;;34.80;25.30;;;;;;5034558;28;20161;-71
2021/05/30 08:28:36;;;;;;;2.20;2.00;;;35.00;24.60;;;;;;5034340;28;20399;-71
2021/05/30 08:31:02;;;;;;;2.23;2.03;;;35.70;24.40;;;;;;5033635;28;20392;-71
2021/05/30 08:33:28;;;;;;;2.30;2.10;;;36.20;23.90;;;;;;5014445;28;20450;-71
2021/05/30 08:35:54;;;;;;;2.17;1.60;;;36.60;23.70;;;;;;5028937;28;20188;-70
2021/05/30 08:38:21;;;;;;;2.10;1.70;;;37.00;23.30;;;;;;5034432;28;20399;-71
2021/05/30 08:40:47;;;;;;;1.67;1.57;;;37.40;22.50;;;;;;5034199;28;20457;-71
2021/05/30 08:43:15;;;;;;;2.57;1.53;;;38.00;22.20;;;;;;5034218;28;20391;-71
2021/05/30 08:45:44;;;;;;;1.30;1.20;;;38.30;22.80;;;;;;5034131;28;20404;-71
2021/05/30 08:48:10;;;;;;;1.67;1.30;;;39.10;20.90;;;;;;5032261;28;20520;-71
2021/05/30 08:50:36;;;;;;;1.60;1.50;;;39.20;20.00;;;;;;5014623;28;20432;-71
2021/05/30 08:53:02;;;;;;;2.00;1.60;;;39.40;20.40;;;;;;5014282;28;20160;-71
2021/05/30 08:55:27;;;;;;;2.07;1.90;;;39.40;20.40;;;;;;5014177;28;20396;-72
2021/05/30 08:57:53;;;;;;;1.83;1.73;;;39.60;20.70;;;;;;5013778;28;20189;-72
2021/05/30 09:00:26;;;;;;;1.80;1.70;;;39.50;20.70;;;;;;5013871;28;20193;-72
2021/05/30 09:03:14;;;;;;;1.97;1.83;;;39.80;20.90;;;;;;5014009;28;20184;-71
2021/05/30 09:05:40;;;;;;;2.00;1.80;;;39.90;20.00;;;;;;5030931;28;20232;-71
2021/05/30 09:08:08;;;;;;;1.83;1.73;;;39.50;20.40;;;;;;5023073;28;20474;-72
2021/05/30 09:10:35;;;;;;;2.07;1.83;;;39.20;20.30;;;;;;5033556;28;20422;-72
2021/05/30 09:13:05;;;;;;;1.63;1.53;;;38.80;20.70;;;;;;5033562;28;20479;-72
2021/05/30 09:18:27;;;;;;;2.40;2.10;;;38.40;21.10;;;;;;5032861;28;20872;-71
2021/05/30 09:20:56;;;;;;;1.90;1.80;;;37.90;21.10;;;;;;5033648;28;20424;-71
2021/05/30 09:23:46;;;;;;;1.80;1.60;;;37.60;21.80;;;;;;5021918;28;20666;-72
2021/05/30 09:26:16;;;;;;;1.80;1.70;;;37.20;21.70;;;;;;5013596;28;20486;-72
2021/05/30 09:29:03;;;;;;;1.87;1.60;;;36.60;22.30;;;;;;5013373;28;21067;-71
2021/05/30 09:31:29;;;;;;;3.47;2.03;;;35.90;22.70;;;;;;5013448;28;20408;-71
2021/05/30 09:33:55;;;;;;;2.00;1.80;;;35.50;22.90;;;;;;5033348;28;20427;-71
2021/05/30 09:36:22;;;;;;;2.47;2.10;;;34.80;23.10;;;;;;5033315;28;20657;-71
2021/05/30 09:38:47;;;;;;;2.13;1.93;;;34.30;23.90;;;;;;5032989;28;20188;-71
2021/05/30 09:41:16;;;;;;;2.00;1.90;;;33.90;24.70;;;;;;5014667;28;20405;-71
2021/05/30 09:43:51;;;;;;;3.13;2.23;;;33.30;25.40;;;;;;5013373;28;20153;-71
2021/05/30 09:46:21;;;;;;;2.70;2.50;;;32.90;26.80;;;;;;5013278;28;20483;-72
2021/05/30 09:56:46;;;;;;;3.20;3.00;;;29.70;32.30;;;;;;5044219;28;20553;-71
2021/05/30 09:59:15;;;;;;;3.43;3.13;;;28.90;34.60;;;;;;5030641;28;20427;-70
2021/05/30 10:04:30;;;;;;;2.50;2.30;;;28.40;35.70;;;;;;5070292;28;20524;-70
2021/05/30 10:06:58;;;;;;;3.17;2.53;;;28.10;34.00;;;;;;5070373;28;20485;-70
2021/05/30 10:09:25;;;;;;;3.53;3.23;;;27.70;33.10;;;;;;5050129;28;20391;-71
2021/05/30 10:11:50;;;;;;;3.60;3.33;;;27.60;34.80;;;;;;5050053;28;20872;-71
2021/05/30 10:14:16;;;;;;;3.30;3.10;;;27.50;35.70;;;;;;5050708;28;20415;-71
2021/05/30 10:16:42;;;;;;;3.20;2.93;;;27.50;36.60;;;;;;5057561;28;20217;-70
2021/05/30 10:21:49;;;;;;;3.13;2.93;;;27.50;36.50;;;;;;5070167;28;21154;-70
2021/05/30 10:24:16;;;;;;;5.30;3.80;;;27.20;34.90;;;;;;5070215;28;20382;-70
2021/05/30 10:26:42;;;;;;;5.50;3.57;;;26.80;35.90;;;;;;5070329;28;20426;-70
2021/05/30 10:31:48;;;;;;;3.60;3.30;;;25.80;37.00;;;;;;5095439;27;20549;-70
2021/05/30 10:34:17;;;;;;;4.23;3.20;;;25.50;37.60;;;;;;5090464;28;20397;-70
2021/05/30 10:37:04;;;;;;;5.50;3.40;;;25.10;38.80;;;;;;5090589;28;20539;-71
2021/05/30 10:45:06;;;;;;;3.23;3.03;;;24.80;39.70;;;;;;5050089;28;21159;-70
2021/05/30 10:50:48;;;;;;;3.43;2.80;;;23.90;41.50;;;;;;5070197;28;20520;-70
2021/05/30 10:56:26;;;;;;;4.23;3.93;;;23.40;39.60;;;;;;5090537;28;21051;-71
2021/05/30 11:01:51;;;;;;;4.40;3.40;;;22.70;40.30;;;;;;5069143;28;21088;-70
2021/05/30 11:12:47;;;;;;;3.73;3.43;;;22.20;41.30;;;;;;5131375;27;21041;-70
2021/05/30 11:17:53;;;;;;;2.93;2.60;;;21.90;42.50;;;;;;5070665;28;20508;-70
2021/05/30 11:23:01;;;;;;;3.03;2.70;;;21.60;42.90;;;;;;5121901;27;20895;-70
2021/05/30 11:28:14;;;;;;;3.83;3.53;;;21.50;43.80;;;;;;5110869;27;20845;-69
2021/05/30 11:36:04;;;;;;;10.83;3.87;;;21.30;44.10;;;;;;5070320;28;20516;-69
2021/05/30 11:46:39;;;;;;;3.37;3.07;;;21.00;44.40;;;;;;5070414;28;20516;-70
2021/05/30 11:51:47;;;;;;;3.60;2.87;;;20.90;45.40;;;;;;5090393;28;20651;-70
2021/05/30 11:54:13;;;;;;;3.30;2.80;;;20.70;45.30;;;;;;5090434;28;20881;-70
2021/05/30 11:56:41;;;;;;;3.60;3.13;;;20.70;45.70;;;;;;5085499;28;21019;-70
2021/05/30 11:59:07;;;;;;;4.00;3.20;;;20.70;46.20;;;;;;5090521;28;20448;-70
2021/05/30 12:01:49;;;;;;;4.13;3.73;;;20.60;46.40;;;;;;5090513;28;20800;-70
2021/05/30 12:06:59;;;;;;;3.50;3.20;;;20.60;46.40;;;;;;5070462;28;20515;-70
2021/05/30 12:09:45;;;;;;;6.60;5.33;;;20.60;46.70;;;;;;5070210;28;20386;-70
2021/05/30 12:12:46;;;;;;;3.53;3.20;;;20.60;46.80;;;;;;5067985;28;20409;-70
2021/05/30 12:15:17;;;;;;;5.67;3.37;;;20.50;46.00;;;;;;5049350;28;20401;-70
2021/05/30 12:20:31;;;;;;;4.17;3.33;;;20.40;46.30;;;;;;5110870;27;20577;-69
2021/05/30 12:23:16;;;;;;;2.93;2.73;;;20.30;47.00;;;;;;5110897;28;20392;-69
2021/05/30 12:25:59;;;;;;;4.70;3.43;;;20.40;47.00;;;;;;5110419;28;20411;-70
2021/05/30 12:28:32;;;;;;;3.93;3.37;;;20.30;47.10;;;;;;5110825;28;20384;-70
2021/05/30 12:31:02;;;;;;;3.80;3.50;;;20.20;47.50;;;;;;5093504;28;20400;-70
2021/05/30 12:33:28;;;;;;;4.27;3.87;;;20.20;48.10;;;;;;5090052;28;20389;-70
2021/05/30 12:35:56;;;;;;;3.33;3.03;;;20.20;47.30;;;;;;5090311;28;20386;-70
2021/05/30 12:38:27;;;;;;;4.13;3.73;;;20.20;46.90;;;;;;5090098;28;20183;-70
2021/05/30 12:40:54;;;;;;;4.23;3.47;;;20.30;47.00;;;;;;5099285;28;20909;-70
2021/05/30 12:43:39;;;;;;;3.43;3.13;;;20.30;47.30;;;;;;5110963;28;20399;-69
2021/05/30 12:46:07;;;;;;;5.00;4.00;;;20.40;47.30;;;;;;5109424;28;20396;-69
2021/05/30 12:48:44;;;;;;;3.50;3.20;;;20.30;47.10;;;;;;5090069;28;20425;-71
2021/05/30 12:51:19;;;;;;;2.87;2.40;;;20.30;46.40;;;;;;5090132;28;20397;-71
2021/05/30 12:53:46;;;;;;;4.07;3.70;;;20.40;46.70;;;;;;5089825;28;20405;-71
2021/05/30 12:56:22;;;;;;;4.57;3.33;;;20.50;47.10;;;;;;5107529;28;20419;-70
2021/05/30 12:59:08;;;;;;;3.70;3.40;;;20.40;46.80;;;;;;5104576;28;20475;-70
2021/05/30 13:01:36;;;;;;;3.30;3.00;;;20.40;46.90;;;;;;5074881;28;20409;-71
2021/05/30 13:06:56;;;;;;;3.70;3.40;;;20.30;47.00;;;;;;5070357;28;20516;-70
2021/05/30 13:09:25;;;;;;;4.20;3.57;;;20.30;47.70;;;;;;5070308;28;20465;-70
2021/05/30 13:11:50;;;;;;;3.50;2.83;;;20.40;47.70;;;;;;5070571;28;20378;-70
2021/05/30 13:14:33;;;;;;;4.80;3.83;;;20.40;48.10;;;;;;5070293;28;20428;-69
2021/05/30 13:17:15;;;;;;;4.70;3.80;;;20.40;47.20;;;;;;5070141;28;20171;-69
2021/05/30 13:20:02;;;;;;;4.67;4.27;;;20.50;47.60;;;;;;5070368;28;20386;-70
2021/05/30 13:22:28;;;;;;;4.80;4.00;;;20.40;47.70;;;;;;5069119;28;20730;-69
2021/05/30 13:24:54;;;;;;;3.67;3.37;;;20.40;48.10;;;;;;5069932;28;20460;-70
2021/05/30 13:27:22;;;;;;;3.60;3.30;;;20.30;49.00;;;;;;5070641;28;20390;-69
2021/05/30 13:30:00;;;;;;;4.30;3.47;;;20.40;48.50;;;;;;5069948;28;20239;-70
2021/05/30 13:32:26;;;;;;;4.73;4.30;;;20.40;48.00;;;;;;5069170;28;20413;-70
2021/05/30 13:34:52;;;;;;;5.17;4.10;;;20.30;48.40;;;;;;5069776;28;20516;-69
2021/05/30 13:37:18;;;;;;;4.30;3.97;;;20.30;48.30;;;;;;5066672;28;20422;-70
2021/05/30 13:39:43;;;;;;;5.30;4.20;;;20.20;48.20;;;;;;5049874;28;20167;-69
2021/05/30 13:42:09;;;;;;;4.60;4.20;;;20.20;48.80;;;;;;5050142;28;20524;-70
2021/05/30 13:44:34;;;;;;;3.63;3.27;;;20.20;49.60;;;;;;5058318;28;20168;-69
2021/05/30 13:47:00;;;;;;;4.90;4.17;;;20.20;48.80;;;;;;5069718;28;20175;-69
2021/05/30 13:49:25;;;;;;;4.77;3.23;;;20.20;48.70;;;;;;5069695;28;20164;-69
2021/05/30 13:51:51;;;;;;;4.83;3.40;;;20.20;48.40;;;;;;5069465;28;20158;-69
2021/05/30 13:54:16;;;;;;;3.40;3.10;;;20.20;48.40;;;;;;5066817;28;20207;-69
2021/05/30 13:56:42;;;;;;;4.83;4.33;;;20.20;48.10;;;;;;5049456;28;20255;-69